sensor_id;sensor_type;location;lat;lon;timestamp;temperature;humidity
3986;DHT22;2007;48.750;9.278;2023-02-28T00:01:12;11.80;47.70
3986;DHT22;2007;48.750;9.278;2023-02-28T00:03:40;11.80;47.70
3986;DHT22;2007;48.750;9.278;2023-02-28T00:06:09;11.80;47.70
3986;DHT22;2007;48.750;9.278;2023-02-28T00:08:39;11.80;47.70
3986;DHT22;2007;48.750;9.278;2023-02-28T00:11:08;11.80;47.70
3986;DHT22;2007;48.750;9.278;2023-02-28T00:13:38;11.70;47.70
3986;DHT22;2007;48.750;9.278;2023-02-28T00:16:08;11.80;47.70
3986;DHT22;2007;48.750;9.278;2023-02-28T00:18:37;11.80;47.70
3986;DHT22;2007;48.750;9.278;2023-02-28T00:21:05;11.70;47.60
3986;DHT22;2007;48.750;9.278;2023-02-28T00:23:34;11.80;47.70
3986;DHT22;2007;48.750;9.278;2023-02-28T00:26:04;11.70;47.60
3986;DHT22;2007;48.750;9.278;2023-02-28T00:28:32;11.70;47.60
3986;DHT22;2007;48.750;9.278;2023-02-28T00:31:00;11.80;47.70
3986;DHT22;2007;48.750;9.278;2023-02-28T00:33:29;11.70;47.60
3986;DHT22;2007;48.750;9.278;2023-02-28T00:36:04;11.80;47.70
3986;DHT22;2007;48.750;9.278;2023-02-28T00:38:33;11.70;47.60
3986;DHT22;2007;48.750;9.278;2023-02-28T00:41:01;11.70;47.60
3986;DHT22;2007;48.750;9.278;2023-02-28T00:43:34;11.70;47.60
3986;DHT22;2007;48.750;9.278;2023-02-28T00:46:03;11.70;47.60
3986;DHT22;2007;48.750;9.278;2023-02-28T00:48:31;11.80;47.70
3986;DHT22;2007;48.750;9.278;2023-02-28T00:50:59;11.70;47.60
3986;DHT22;2007;48.750;9.278;2023-02-28T00:53:27;11.80;47.70
3986;DHT22;2007;48.750;9.278;2023-02-28T00:55:55;11.70;47.60
3986;DHT22;2007;48.750;9.278;2023-02-28T00:58:23;11.70;47.60
3986;DHT22;2007;48.750;9.278;2023-02-28T01:00:53;11.70;47.60
3986;DHT22;2007;48.750;9.278;2023-02-28T01:03:21;11.70;47.60
3986;DHT22;2007;48.750;9.278;2023-02-28T01:05:50;11.70;47.60
3986;DHT22;2007;48.750;9.278;2023-02-28T01:08:19;11.70;47.60
3986;DHT22;2007;48.750;9.278;2023-02-28T01:10:47;11.70;47.60
3986;DHT22;2007;48.750;9.278;2023-02-28T01:13:16;11.70;47.60
3986;DHT22;2007;48.750;9.278;2023-02-28T01:15:49;11.70;47.60
3986;DHT22;2007;48.750;9.278;2023-02-28T01:18:19;11.70;47.60
3986;DHT22;2007;48.750;9.278;2023-02-28T01:20:47;11.70;47.60
3986;DHT22;2007;48.750;9.278;2023-02-28T01:23:15;11.70;47.60
3986;DHT22;2007;48.750;9.278;2023-02-28T01:25:43;11.70;47.60
3986;DHT22;2007;48.750;9.278;2023-02-28T01:28:11;11.70;47.60
3986;DHT22;2007;48.750;9.278;2023-02-28T01:30:39;11.70;47.60
3986;DHT22;2007;48.750;9.278;2023-02-28T01:33:07;11.70;47.60
3986;DHT22;2007;48.750;9.278;2023-02-28T01:35:36;11.70;47.60
3986;DHT22;2007;48.750;9.278;2023-02-28T01:38:04;11.70;47.60
3986;DHT22;2007;48.750;9.278;2023-02-28T01:40:47;11.70;47.60
3986;DHT22;2007;48.750;9.278;2023-02-28T01:43:20;11.70;47.60
3986;DHT22;2007;48.750;9.278;2023-02-28T01:45:49;11.70;47.60
3986;DHT22;2007;48.750;9.278;2023-02-28T01:48:18;11.70;47.60
3986;DHT22;2007;48.750;9.278;2023-02-28T01:50:48;11.70;47.60
3986;DHT22;2007;48.750;9.278;2023-02-28T01:53:19;11.70;47.60
3986;DHT22;2007;48.750;9.278;2023-02-28T01:55:50;11.70;47.60
3986;DHT22;2007;48.750;9.278;2023-02-28T01:58:20;11.70;47.60
3986;DHT22;2007;48.750;9.278;2023-02-28T02:00:48;11.70;47.60
3986;DHT22;2007;48.750;9.278;2023-02-28T02:03:18;11.70;47.60
3986;DHT22;2007;48.750;9.278;2023-02-28T02:05:48;11.70;47.60
3986;DHT22;2007;48.750;9.278;2023-02-28T02:08:19;11.70;47.60
3986;DHT22;2007;48.750;9.278;2023-02-28T02:10:49;11.70;47.60
3986;DHT22;2007;48.750;9.278;2023-02-28T02:13:49;11.70;47.60
3986;DHT22;2007;48.750;9.278;2023-02-28T02:16:34;11.70;47.60
3986;DHT22;2007;48.750;9.278;2023-02-28T02:19:18;11.70;47.60
3986;DHT22;2007;48.750;9.278;2023-02-28T02:22:21;11.70;47.60
3986;DHT22;2007;48.750;9.278;2023-02-28T02:25:08;11.60;47.40
3986;DHT22;2007;48.750;9.278;2023-02-28T02:28:03;11.60;47.40
3986;DHT22;2007;48.750;9.278;2023-02-28T02:36:45;11.60;47.50
3986;DHT22;2007;48.750;9.278;2023-02-28T02:39:19;11.60;47.50
3986;DHT22;2007;48.750;9.278;2023-02-28T02:41:51;11.70;47.60
3986;DHT22;2007;48.750;9.278;2023-02-28T02:44:22;11.60;47.50
3986;DHT22;2007;48.750;9.278;2023-02-28T02:46:55;11.60;47.50
3986;DHT22;2007;48.750;9.278;2023-02-28T02:49:28;11.60;47.50
3986;DHT22;2007;48.750;9.278;2023-02-28T02:52:03;11.60;47.50
3986;DHT22;2007;48.750;9.278;2023-02-28T02:54:34;11.60;47.50
3986;DHT22;2007;48.750;9.278;2023-02-28T02:57:05;11.60;47.50
3986;DHT22;2007;48.750;9.278;2023-02-28T02:59:36;11.60;47.50
3986;DHT22;2007;48.750;9.278;2023-02-28T03:02:08;11.60;47.40
3986;DHT22;2007;48.750;9.278;2023-02-28T03:04:42;11.60;47.50
3986;DHT22;2007;48.750;9.278;2023-02-28T03:07:12;11.60;47.50
3986;DHT22;2007;48.750;9.278;2023-02-28T03:09:40;11.60;47.40
3986;DHT22;2007;48.750;9.278;2023-02-28T03:12:11;11.60;47.40
3986;DHT22;2007;48.750;9.278;2023-02-28T03:14:44;11.60;47.40
3986;DHT22;2007;48.750;9.278;2023-02-28T03:17:27;11.60;47.40
3986;DHT22;2007;48.750;9.278;2023-02-28T03:20:05;11.60;47.50
3986;DHT22;2007;48.750;9.278;2023-02-28T03:22:50;11.60;47.40
3986;DHT22;2007;48.750;9.278;2023-02-28T03:25:27;11.60;47.40
3986;DHT22;2007;48.750;9.278;2023-02-28T03:28:02;11.60;47.40
3986;DHT22;2007;48.750;9.278;2023-02-28T03:30:36;11.60;47.50
3986;DHT22;2007;48.750;9.278;2023-02-28T03:33:08;11.60;47.40
3986;DHT22;2007;48.750;9.278;2023-02-28T03:35:40;11.60;47.50
3986;DHT22;2007;48.750;9.278;2023-02-28T03:38:14;11.60;47.70
3986;DHT22;2007;48.750;9.278;2023-02-28T03:40:48;11.60;47.40
3986;DHT22;2007;48.750;9.278;2023-02-28T03:43:21;11.60;47.40
3986;DHT22;2007;48.750;9.278;2023-02-28T03:45:51;11.60;47.50
3986;DHT22;2007;48.750;9.278;2023-02-28T03:48:23;11.60;47.40
3986;DHT22;2007;48.750;9.278;2023-02-28T03:50:55;11.60;47.50
3986;DHT22;2007;48.750;9.278;2023-02-28T03:53:29;11.60;47.40
3986;DHT22;2007;48.750;9.278;2023-02-28T03:56:03;11.60;47.50
3986;DHT22;2007;48.750;9.278;2023-02-28T03:58:38;11.60;47.50
3986;DHT22;2007;48.750;9.278;2023-02-28T04:01:12;11.60;47.40
3986;DHT22;2007;48.750;9.278;2023-02-28T04:03:40;11.60;47.40
3986;DHT22;2007;48.750;9.278;2023-02-28T04:06:15;11.60;47.50
3986;DHT22;2007;48.750;9.278;2023-02-28T04:08:45;11.60;47.40
3986;DHT22;2007;48.750;9.278;2023-02-28T04:11:20;11.60;47.50
3986;DHT22;2007;48.750;9.278;2023-02-28T04:13:49;11.60;47.50
3986;DHT22;2007;48.750;9.278;2023-02-28T04:16:17;11.60;47.50
3986;DHT22;2007;48.750;9.278;2023-02-28T04:19:00;11.60;47.50
3986;DHT22;2007;48.750;9.278;2023-02-28T04:21:30;11.60;47.50
3986;DHT22;2007;48.750;9.278;2023-02-28T04:24:00;11.60;47.50
3986;DHT22;2007;48.750;9.278;2023-02-28T04:26:29;11.60;47.50
3986;DHT22;2007;48.750;9.278;2023-02-28T04:28:58;11.60;47.40
3986;DHT22;2007;48.750;9.278;2023-02-28T04:31:26;11.50;47.40
3986;DHT22;2007;48.750;9.278;2023-02-28T04:33:54;11.50;47.40
3986;DHT22;2007;48.750;9.278;2023-02-28T04:36:22;11.50;47.40
3986;DHT22;2007;48.750;9.278;2023-02-28T04:38:50;11.50;47.40
3986;DHT22;2007;48.750;9.278;2023-02-28T04:41:21;11.50;47.40
3986;DHT22;2007;48.750;9.278;2023-02-28T04:43:50;11.50;47.40
3986;DHT22;2007;48.750;9.278;2023-02-28T04:46:19;11.50;47.40
3986;DHT22;2007;48.750;9.278;2023-02-28T04:48:47;11.50;47.40
3986;DHT22;2007;48.750;9.278;2023-02-28T04:51:17;11.50;47.40
3986;DHT22;2007;48.750;9.278;2023-02-28T04:53:45;11.50;47.40
3986;DHT22;2007;48.750;9.278;2023-02-28T04:56:14;11.50;47.40
3986;DHT22;2007;48.750;9.278;2023-02-28T04:58:44;11.50;47.40
3986;DHT22;2007;48.750;9.278;2023-02-28T05:01:18;11.50;47.40
3986;DHT22;2007;48.750;9.278;2023-02-28T05:03:47;11.50;47.40
3986;DHT22;2007;48.750;9.278;2023-02-28T05:06:16;11.50;47.50
3986;DHT22;2007;48.750;9.278;2023-02-28T05:08:44;11.50;48.10
3986;DHT22;2007;48.750;9.278;2023-02-28T05:11:16;11.50;47.50
3986;DHT22;2007;48.750;9.278;2023-02-28T05:13:46;11.50;47.50
3986;DHT22;2007;48.750;9.278;2023-02-28T05:16:14;11.50;47.40
3986;DHT22;2007;48.750;9.278;2023-02-28T05:18:42;11.50;47.50
3986;DHT22;2007;48.750;9.278;2023-02-28T05:21:28;11.50;47.50
3986;DHT22;2007;48.750;9.278;2023-02-28T05:23:59;11.50;47.40
3986;DHT22;2007;48.750;9.278;2023-02-28T05:26:27;11.50;47.50
3986;DHT22;2007;48.750;9.278;2023-02-28T05:28:57;11.50;47.50
3986;DHT22;2007;48.750;9.278;2023-02-28T05:31:25;11.50;47.50
3986;DHT22;2007;48.750;9.278;2023-02-28T05:33:53;11.50;47.50
3986;DHT22;2007;48.750;9.278;2023-02-28T05:36:22;11.50;47.50
3986;DHT22;2007;48.750;9.278;2023-02-28T05:38:50;11.50;48.10
3986;DHT22;2007;48.750;9.278;2023-02-28T05:41:19;11.50;47.40
3986;DHT22;2007;48.750;9.278;2023-02-28T05:43:48;11.50;47.50
3986;DHT22;2007;48.750;9.278;2023-02-28T05:46:17;11.50;47.50
3986;DHT22;2007;48.750;9.278;2023-02-28T05:48:47;11.50;47.50
3986;DHT22;2007;48.750;9.278;2023-02-28T05:51:15;11.50;47.50
3986;DHT22;2007;48.750;9.278;2023-02-28T05:53:43;11.50;47.50
3986;DHT22;2007;48.750;9.278;2023-02-28T05:56:11;11.50;47.50
3986;DHT22;2007;48.750;9.278;2023-02-28T05:58:39;11.50;47.50
3986;DHT22;2007;48.750;9.278;2023-02-28T06:01:23;11.50;47.50
3986;DHT22;2007;48.750;9.278;2023-02-28T06:03:51;11.50;47.50
3986;DHT22;2007;48.750;9.278;2023-02-28T06:06:19;11.40;47.40
3986;DHT22;2007;48.750;9.278;2023-02-28T06:08:47;11.50;47.50
3986;DHT22;2007;48.750;9.278;2023-02-28T06:11:15;11.40;47.40
3986;DHT22;2007;48.750;9.278;2023-02-28T06:13:43;11.40;47.40
3986;DHT22;2007;48.750;9.278;2023-02-28T06:16:11;11.40;47.40
3986;DHT22;2007;48.750;9.278;2023-02-28T06:18:40;11.50;47.50
3986;DHT22;2007;48.750;9.278;2023-02-28T06:21:08;11.40;47.40
3986;DHT22;2007;48.750;9.278;2023-02-28T06:23:36;11.50;48.20
3986;DHT22;2007;48.750;9.278;2023-02-28T06:26:04;11.50;47.50
3986;DHT22;2007;48.750;9.278;2023-02-28T06:28:32;11.50;47.50
3986;DHT22;2007;48.750;9.278;2023-02-28T06:31:06;11.50;47.50
3986;DHT22;2007;48.750;9.278;2023-02-28T06:33:34;11.40;47.40
3986;DHT22;2007;48.750;9.278;2023-02-28T06:36:05;11.40;47.40
3986;DHT22;2007;48.750;9.278;2023-02-28T06:38:33;11.40;47.40
3986;DHT22;2007;48.750;9.278;2023-02-28T06:41:01;11.50;47.50
3986;DHT22;2007;48.750;9.278;2023-02-28T06:43:31;11.50;47.50
3986;DHT22;2007;48.750;9.278;2023-02-28T06:46:01;11.40;47.40
3986;DHT22;2007;48.750;9.278;2023-02-28T06:48:29;11.40;47.40
3986;DHT22;2007;48.750;9.278;2023-02-28T06:51:06;11.40;47.40
3986;DHT22;2007;48.750;9.278;2023-02-28T06:53:35;11.40;48.10
3986;DHT22;2007;48.750;9.278;2023-02-28T06:56:06;11.40;47.50
3986;DHT22;2007;48.750;9.278;2023-02-28T06:58:35;11.40;47.40
3986;DHT22;2007;48.750;9.278;2023-02-28T07:01:04;11.40;47.40
3986;DHT22;2007;48.750;9.278;2023-02-28T07:03:32;11.40;47.40
3986;DHT22;2007;48.750;9.278;2023-02-28T07:06:02;11.40;47.40
3986;DHT22;2007;48.750;9.278;2023-02-28T07:08:32;11.40;47.40
3986;DHT22;2007;48.750;9.278;2023-02-28T07:10:59;11.40;47.40
3986;DHT22;2007;48.750;9.278;2023-02-28T07:13:28;11.40;47.50
3986;DHT22;2007;48.750;9.278;2023-02-28T07:15:57;11.40;47.50
3986;DHT22;2007;48.750;9.278;2023-02-28T07:18:26;11.40;47.40
3986;DHT22;2007;48.750;9.278;2023-02-28T07:20:54;11.40;47.50
3986;DHT22;2007;48.750;9.278;2023-02-28T07:23:22;11.40;47.50
3986;DHT22;2007;48.750;9.278;2023-02-28T07:25:51;11.40;47.50
3986;DHT22;2007;48.750;9.278;2023-02-28T07:28:19;11.40;47.50
3986;DHT22;2007;48.750;9.278;2023-02-28T07:30:47;11.40;47.50
3986;DHT22;2007;48.750;9.278;2023-02-28T07:33:16;11.40;47.50
3986;DHT22;2007;48.750;9.278;2023-02-28T07:35:44;11.40;47.50
3986;DHT22;2007;48.750;9.278;2023-02-28T07:38:12;11.40;47.50
3986;DHT22;2007;48.750;9.278;2023-02-28T07:40:40;11.40;47.50
3986;DHT22;2007;48.750;9.278;2023-02-28T07:43:09;11.40;47.50
3986;DHT22;2007;48.750;9.278;2023-02-28T07:45:37;11.40;47.50
3986;DHT22;2007;48.750;9.278;2023-02-28T07:48:05;11.40;47.50
3986;DHT22;2007;48.750;9.278;2023-02-28T07:50:36;11.40;47.50
3986;DHT22;2007;48.750;9.278;2023-02-28T07:53:05;11.40;47.40
3986;DHT22;2007;48.750;9.278;2023-02-28T07:55:33;11.40;47.50
3986;DHT22;2007;48.750;9.278;2023-02-28T07:58:01;11.40;47.50
3986;DHT22;2007;48.750;9.278;2023-02-28T08:00:30;11.40;47.50
3986;DHT22;2007;48.750;9.278;2023-02-28T08:02:59;11.40;47.50
3986;DHT22;2007;48.750;9.278;2023-02-28T08:05:27;11.40;47.50
3986;DHT22;2007;48.750;9.278;2023-02-28T08:07:55;11.40;47.50
3986;DHT22;2007;48.750;9.278;2023-02-28T08:10:23;11.40;47.50
3986;DHT22;2007;48.750;9.278;2023-02-28T08:12:51;11.40;47.50
3986;DHT22;2007;48.750;9.278;2023-02-28T08:15:19;11.40;47.50
3986;DHT22;2007;48.750;9.278;2023-02-28T08:17:48;11.40;47.50
3986;DHT22;2007;48.750;9.278;2023-02-28T08:20:16;11.40;47.50
3986;DHT22;2007;48.750;9.278;2023-02-28T08:22:44;11.40;47.50
3986;DHT22;2007;48.750;9.278;2023-02-28T08:25:12;11.40;47.50
3986;DHT22;2007;48.750;9.278;2023-02-28T08:27:40;11.30;47.40
3986;DHT22;2007;48.750;9.278;2023-02-28T08:30:10;11.40;47.50
3986;DHT22;2007;48.750;9.278;2023-02-28T08:32:38;11.30;47.40
3986;DHT22;2007;48.750;9.278;2023-02-28T08:35:09;11.30;47.40
3986;DHT22;2007;48.750;9.278;2023-02-28T08:37:37;11.30;47.40
3986;DHT22;2007;48.750;9.278;2023-02-28T08:40:06;11.30;47.40
3986;DHT22;2007;48.750;9.278;2023-02-28T08:42:35;11.30;47.40
3986;DHT22;2007;48.750;9.278;2023-02-28T08:45:04;11.30;47.40
3986;DHT22;2007;48.750;9.278;2023-02-28T08:47:32;11.30;47.40
3986;DHT22;2007;48.750;9.278;2023-02-28T08:50:00;11.30;47.40
3986;DHT22;2007;48.750;9.278;2023-02-28T08:52:29;11.30;47.40
3986;DHT22;2007;48.750;9.278;2023-02-28T08:54:57;11.30;47.40
3986;DHT22;2007;48.750;9.278;2023-02-28T08:57:25;11.30;47.40
3986;DHT22;2007;48.750;9.278;2023-02-28T08:59:53;11.30;47.40
3986;DHT22;2007;48.750;9.278;2023-02-28T09:02:22;11.30;47.40
3986;DHT22;2007;48.750;9.278;2023-02-28T09:04:49;11.30;47.40
3986;DHT22;2007;48.750;9.278;2023-02-28T09:07:17;11.30;47.40
3986;DHT22;2007;48.750;9.278;2023-02-28T09:09:47;11.30;47.40
3986;DHT22;2007;48.750;9.278;2023-02-28T09:12:21;11.30;47.40
3986;DHT22;2007;48.750;9.278;2023-02-28T09:14:50;11.30;47.40
3986;DHT22;2007;48.750;9.278;2023-02-28T09:17:19;11.30;47.40
3986;DHT22;2007;48.750;9.278;2023-02-28T09:19:48;11.30;47.40
3986;DHT22;2007;48.750;9.278;2023-02-28T09:22:16;11.30;47.40
3986;DHT22;2007;48.750;9.278;2023-02-28T09:24:44;11.30;47.40
3986;DHT22;2007;48.750;9.278;2023-02-28T09:27:13;11.30;47.50
3986;DHT22;2007;48.750;9.278;2023-02-28T09:29:41;11.30;47.50
3986;DHT22;2007;48.750;9.278;2023-02-28T09:32:09;11.30;47.50
3986;DHT22;2007;48.750;9.278;2023-02-28T09:34:37;11.30;47.40
3986;DHT22;2007;48.750;9.278;2023-02-28T09:37:05;11.30;47.50
3986;DHT22;2007;48.750;9.278;2023-02-28T09:39:33;11.30;47.50
3986;DHT22;2007;48.750;9.278;2023-02-28T09:42:03;11.30;47.50
3986;DHT22;2007;48.750;9.278;2023-02-28T09:44:36;11.30;47.50
3986;DHT22;2007;48.750;9.278;2023-02-28T09:47:10;11.30;47.50
3986;DHT22;2007;48.750;9.278;2023-02-28T09:49:42;11.30;47.40
3986;DHT22;2007;48.750;9.278;2023-02-28T09:52:17;11.30;47.50
3986;DHT22;2007;48.750;9.278;2023-02-28T09:54:46;11.30;47.50
3986;DHT22;2007;48.750;9.278;2023-02-28T09:57:19;11.30;47.50
3986;DHT22;2007;48.750;9.278;2023-02-28T09:59:59;11.30;47.50
3986;DHT22;2007;48.750;9.278;2023-02-28T10:02:54;11.30;47.50
3986;DHT22;2007;48.750;9.278;2023-02-28T10:05:28;11.30;47.50
3986;DHT22;2007;48.750;9.278;2023-02-28T10:08:04;11.30;47.50
3986;DHT22;2007;48.750;9.278;2023-02-28T10:10:38;11.30;47.50
3986;DHT22;2007;48.750;9.278;2023-02-28T10:13:14;11.30;47.50
3986;DHT22;2007;48.750;9.278;2023-02-28T10:15:46;11.30;47.50
3986;DHT22;2007;48.750;9.278;2023-02-28T10:18:19;11.30;47.50
3986;DHT22;2007;48.750;9.278;2023-02-28T10:20:49;11.30;47.50
3986;DHT22;2007;48.750;9.278;2023-02-28T10:23:21;11.30;47.50
3986;DHT22;2007;48.750;9.278;2023-02-28T10:25:54;11.30;47.50
3986;DHT22;2007;48.750;9.278;2023-02-28T10:28:25;11.30;47.50
3986;DHT22;2007;48.750;9.278;2023-02-28T10:30:55;11.30;47.50
3986;DHT22;2007;48.750;9.278;2023-02-28T10:33:28;11.30;47.50
3986;DHT22;2007;48.750;9.278;2023-02-28T10:35:57;11.30;47.50
3986;DHT22;2007;48.750;9.278;2023-02-28T10:38:28;11.30;47.50
3986;DHT22;2007;48.750;9.278;2023-02-28T10:41:07;11.30;47.50
3986;DHT22;2007;48.750;9.278;2023-02-28T10:43:36;11.30;47.50
3986;DHT22;2007;48.750;9.278;2023-02-28T10:46:14;11.30;47.50
3986;DHT22;2007;48.750;9.278;2023-02-28T10:49:02;11.30;47.50
3986;DHT22;2007;48.750;9.278;2023-02-28T10:51:36;11.30;47.50
3986;DHT22;2007;48.750;9.278;2023-02-28T10:54:05;11.30;47.50
3986;DHT22;2007;48.750;9.278;2023-02-28T10:56:33;11.30;47.50
3986;DHT22;2007;48.750;9.278;2023-02-28T10:59:03;11.30;47.50
3986;DHT22;2007;48.750;9.278;2023-02-28T11:01:50;11.30;47.50
3986;DHT22;2007;48.750;9.278;2023-02-28T11:04:32;11.30;47.50
3986;DHT22;2007;48.750;9.278;2023-02-28T11:07:04;11.30;47.50
3986;DHT22;2007;48.750;9.278;2023-02-28T11:09:34;11.30;47.50
3986;DHT22;2007;48.750;9.278;2023-02-28T11:12:05;11.30;47.50
3986;DHT22;2007;48.750;9.278;2023-02-28T11:14:47;11.30;47.50
3986;DHT22;2007;48.750;9.278;2023-02-28T11:17:21;11.30;47.60
3986;DHT22;2007;48.750;9.278;2023-02-28T11:19:52;11.20;47.40
3986;DHT22;2007;48.750;9.278;2023-02-28T11:22:23;11.20;47.40
3986;DHT22;2007;48.750;9.278;2023-02-28T11:24:53;11.20;47.40
3986;DHT22;2007;48.750;9.278;2023-02-28T11:27:43;11.20;47.50
3986;DHT22;2007;48.750;9.278;2023-02-28T11:30:25;11.30;47.50
3986;DHT22;2007;48.750;9.278;2023-02-28T11:32:55;11.30;47.50
3986;DHT22;2007;48.750;9.278;2023-02-28T11:35:26;11.20;47.40
3986;DHT22;2007;48.750;9.278;2023-02-28T11:37:57;11.20;47.40
3986;DHT22;2007;48.750;9.278;2023-02-28T11:40:31;11.20;47.50
3986;DHT22;2007;48.750;9.278;2023-02-28T11:43:17;11.30;47.50
3986;DHT22;2007;48.750;9.278;2023-02-28T11:45:58;11.30;47.50
3986;DHT22;2007;48.750;9.278;2023-02-28T11:48:37;11.30;47.50
3986;DHT22;2007;48.750;9.278;2023-02-28T11:51:15;11.20;47.50
3986;DHT22;2007;48.750;9.278;2023-02-28T11:54:08;11.30;47.50
3986;DHT22;2007;48.750;9.278;2023-02-28T11:56:43;11.30;47.60
3986;DHT22;2007;48.750;9.278;2023-02-28T11:59:29;11.20;47.50
3986;DHT22;2007;48.750;9.278;2023-02-28T12:02:18;11.20;47.50
3986;DHT22;2007;48.750;9.278;2023-02-28T12:05:08;11.20;47.50
3986;DHT22;2007;48.750;9.278;2023-02-28T12:07:45;11.20;47.50
3986;DHT22;2007;48.750;9.278;2023-02-28T12:10:21;11.20;47.50
3986;DHT22;2007;48.750;9.278;2023-02-28T12:12:57;11.30;48.20
3986;DHT22;2007;48.750;9.278;2023-02-28T12:15:54;11.30;47.60
3986;DHT22;2007;48.750;9.278;2023-02-28T12:18:39;11.30;47.60
3986;DHT22;2007;48.750;9.278;2023-02-28T12:21:17;11.30;47.60
3986;DHT22;2007;48.750;9.278;2023-02-28T12:24:00;11.30;47.60
3986;DHT22;2007;48.750;9.278;2023-02-28T12:26:36;11.30;47.60
3986;DHT22;2007;48.750;9.278;2023-02-28T12:29:12;11.30;47.60
3986;DHT22;2007;48.750;9.278;2023-02-28T12:31:44;11.30;47.60
3986;DHT22;2007;48.750;9.278;2023-02-28T12:34:19;11.30;47.60
3986;DHT22;2007;48.750;9.278;2023-02-28T12:36:51;11.30;47.60
3986;DHT22;2007;48.750;9.278;2023-02-28T12:39:25;11.30;47.60
3986;DHT22;2007;48.750;9.278;2023-02-28T12:41:58;11.30;47.60
3986;DHT22;2007;48.750;9.278;2023-02-28T12:44:32;11.30;47.60
3986;DHT22;2007;48.750;9.278;2023-02-28T12:47:03;11.30;47.60
3986;DHT22;2007;48.750;9.278;2023-02-28T12:49:34;11.30;47.60
3986;DHT22;2007;48.750;9.278;2023-02-28T12:52:06;11.30;47.60
3986;DHT22;2007;48.750;9.278;2023-02-28T12:54:44;11.30;47.60
3986;DHT22;2007;48.750;9.278;2023-02-28T12:57:17;11.30;47.60
3986;DHT22;2007;48.750;9.278;2023-02-28T12:59:49;11.30;47.70
3986;DHT22;2007;48.750;9.278;2023-02-28T13:02:42;11.30;47.70
3986;DHT22;2007;48.750;9.278;2023-02-28T13:11:24;11.30;47.70
3986;DHT22;2007;48.750;9.278;2023-02-28T13:13:58;11.30;47.70
3986;DHT22;2007;48.750;9.278;2023-02-28T13:16:26;11.30;47.70
3986;DHT22;2007;48.750;9.278;2023-02-28T13:19:08;11.30;47.70
3986;DHT22;2007;48.750;9.278;2023-02-28T13:21:42;11.30;47.70
3986;DHT22;2007;48.750;9.278;2023-02-28T13:24:37;11.30;47.70
3986;DHT22;2007;48.750;9.278;2023-02-28T13:27:24;11.30;47.70
3986;DHT22;2007;48.750;9.278;2023-02-28T13:30:00;11.30;47.70
3986;DHT22;2007;48.750;9.278;2023-02-28T13:32:34;11.30;47.70
3986;DHT22;2007;48.750;9.278;2023-02-28T13:35:43;11.30;47.70
3986;DHT22;2007;48.750;9.278;2023-02-28T13:44:09;11.30;47.70
3986;DHT22;2007;48.750;9.278;2023-02-28T13:49:39;11.30;47.70
3986;DHT22;2007;48.750;9.278;2023-02-28T13:52:15;11.30;47.70
3986;DHT22;2007;48.750;9.278;2023-02-28T13:54:54;11.30;47.70
3986;DHT22;2007;48.750;9.278;2023-02-28T13:57:33;11.30;47.80
3986;DHT22;2007;48.750;9.278;2023-02-28T14:00:21;11.30;47.80
3986;DHT22;2007;48.750;9.278;2023-02-28T14:03:05;11.30;47.70
3986;DHT22;2007;48.750;9.278;2023-02-28T14:05:36;11.30;47.80
3986;DHT22;2007;48.750;9.278;2023-02-28T14:08:08;11.30;47.80
3986;DHT22;2007;48.750;9.278;2023-02-28T14:10:44;11.30;47.80
3986;DHT22;2007;48.750;9.278;2023-02-28T14:15:59;11.30;47.70
3986;DHT22;2007;48.750;9.278;2023-02-28T14:18:30;11.30;47.80
3986;DHT22;2007;48.750;9.278;2023-02-28T14:21:08;11.30;47.80
3986;DHT22;2007;48.750;9.278;2023-02-28T14:26:46;11.30;47.80
3986;DHT22;2007;48.750;9.278;2023-02-28T14:29:42;11.30;47.80
3986;DHT22;2007;48.750;9.278;2023-02-28T14:32:21;11.30;48.40
3986;DHT22;2007;48.750;9.278;2023-02-28T14:34:55;11.30;47.80
3986;DHT22;2007;48.750;9.278;2023-02-28T14:37:28;11.30;47.80
3986;DHT22;2007;48.750;9.278;2023-02-28T14:39:57;11.30;47.80
3986;DHT22;2007;48.750;9.278;2023-02-28T14:42:29;11.30;47.80
3986;DHT22;2007;48.750;9.278;2023-02-28T14:44:57;11.30;47.80
3986;DHT22;2007;48.750;9.278;2023-02-28T14:47:28;11.30;47.80
3986;DHT22;2007;48.750;9.278;2023-02-28T14:49:59;11.30;47.80
3986;DHT22;2007;48.750;9.278;2023-02-28T14:52:29;11.30;47.80
3986;DHT22;2007;48.750;9.278;2023-02-28T14:55:00;11.30;47.80
3986;DHT22;2007;48.750;9.278;2023-02-28T14:57:30;11.30;47.80
3986;DHT22;2007;48.750;9.278;2023-02-28T15:00:00;11.30;47.80
3986;DHT22;2007;48.750;9.278;2023-02-28T15:02:34;11.30;47.80
3986;DHT22;2007;48.750;9.278;2023-02-28T15:05:19;11.30;47.80
3986;DHT22;2007;48.750;9.278;2023-02-28T15:08:01;11.30;47.90
3986;DHT22;2007;48.750;9.278;2023-02-28T15:10:29;11.30;47.80
3986;DHT22;2007;48.750;9.278;2023-02-28T15:12:59;11.30;47.80
3986;DHT22;2007;48.750;9.278;2023-02-28T15:15:40;11.30;47.80
3986;DHT22;2007;48.750;9.278;2023-02-28T15:18:31;11.30;47.80
3986;DHT22;2007;48.750;9.278;2023-02-28T15:21:04;11.30;47.80
3986;DHT22;2007;48.750;9.278;2023-02-28T15:23:35;11.30;47.80
3986;DHT22;2007;48.750;9.278;2023-02-28T15:26:04;11.30;47.80
3986;DHT22;2007;48.750;9.278;2023-02-28T15:28:33;11.30;47.80
3986;DHT22;2007;48.750;9.278;2023-02-28T15:31:03;11.30;47.80
3986;DHT22;2007;48.750;9.278;2023-02-28T15:33:33;11.30;47.90
3986;DHT22;2007;48.750;9.278;2023-02-28T15:36:13;11.30;47.90
3986;DHT22;2007;48.750;9.278;2023-02-28T15:38:42;11.30;47.80
3986;DHT22;2007;48.750;9.278;2023-02-28T15:41:24;11.30;47.90
3986;DHT22;2007;48.750;9.278;2023-02-28T15:44:13;11.30;47.80
3986;DHT22;2007;48.750;9.278;2023-02-28T15:46:45;11.30;47.80
3986;DHT22;2007;48.750;9.278;2023-02-28T15:49:22;11.30;47.80
3986;DHT22;2007;48.750;9.278;2023-02-28T15:51:52;11.30;47.90
3986;DHT22;2007;48.750;9.278;2023-02-28T15:54:23;11.30;47.90
3986;DHT22;2007;48.750;9.278;2023-02-28T15:56:56;11.30;47.80
3986;DHT22;2007;48.750;9.278;2023-02-28T15:59:26;11.40;48.00
3986;DHT22;2007;48.750;9.278;2023-02-28T16:02:16;11.40;47.90
3986;DHT22;2007;48.750;9.278;2023-02-28T16:05:02;11.30;47.80
3986;DHT22;2007;48.750;9.278;2023-02-28T16:07:30;11.30;47.90
3986;DHT22;2007;48.750;9.278;2023-02-28T16:09:58;11.40;48.00
3986;DHT22;2007;48.750;9.278;2023-02-28T16:12:28;11.40;47.90
3986;DHT22;2007;48.750;9.278;2023-02-28T16:14:58;11.40;47.90
3986;DHT22;2007;48.750;9.278;2023-02-28T16:17:29;11.40;47.90
3986;DHT22;2007;48.750;9.278;2023-02-28T16:20:00;11.40;47.90
3986;DHT22;2007;48.750;9.278;2023-02-28T16:22:29;11.40;47.90
3986;DHT22;2007;48.750;9.278;2023-02-28T16:24:57;11.40;47.90
3986;DHT22;2007;48.750;9.278;2023-02-28T16:27:29;11.40;47.90
3986;DHT22;2007;48.750;9.278;2023-02-28T16:29:58;11.40;47.90
3986;DHT22;2007;48.750;9.278;2023-02-28T16:32:26;11.40;47.90
3986;DHT22;2007;48.750;9.278;2023-02-28T16:34:54;11.40;47.90
3986;DHT22;2007;48.750;9.278;2023-02-28T16:37:23;11.40;47.90
3986;DHT22;2007;48.750;9.278;2023-02-28T16:39:51;11.40;47.90
3986;DHT22;2007;48.750;9.278;2023-02-28T16:42:22;11.40;48.00
3986;DHT22;2007;48.750;9.278;2023-02-28T16:44:52;11.40;47.90
3986;DHT22;2007;48.750;9.278;2023-02-28T16:47:20;11.40;47.90
3986;DHT22;2007;48.750;9.278;2023-02-28T16:49:49;11.40;47.90
3986;DHT22;2007;48.750;9.278;2023-02-28T16:52:17;11.40;47.90
3986;DHT22;2007;48.750;9.278;2023-02-28T16:54:46;11.40;47.90
3986;DHT22;2007;48.750;9.278;2023-02-28T16:57:18;11.40;47.90
3986;DHT22;2007;48.750;9.278;2023-02-28T16:59:48;11.40;47.90
3986;DHT22;2007;48.750;9.278;2023-02-28T17:02:18;11.40;47.90